Airfield :
LOGIN :

Register | Disclaimer

   EN    FR    IT 

 










Legend :    VFR   Marginal VFR   IFR   Intensive IFR   Very Intensive IFR
Visi :
Ceiling :
>= 8 km
>= 3000ft
5 to 8 km
1000 to 3000 ft
1500m to 5 km
500 to 1000 ft
800 to 1500m
200 to 500 ft
< 800m
< 200 ft
Symbols :   Thunderstorms  Fog  Heavy snow  Heavy precipitations  Wind > 20 kt
SIGMETs :     Misc.  Thunderstorms  Icing  Turbulence  Mountain Waves  Volcanic Ashes






- Airport Elevation : 319 ft


EIME - Casement Air Base

CURRENT METAR :
  • 240500Z 26006KT 9999 FEW016 02/01 Q1021

EXPIRED METARs :
  • 240400Z 28005KT 9999 FEW019 03/02 Q1021
  • 240300Z 27006KT 9999 FEW022 BKN027 05/03 Q1022
  • 240200Z 28005KT 260V330 9999 BKN029 05/03 Q1022
  • 240100Z 28005KT 9999 BKN029 05/03 Q1023

TAF TAF EIME
Valid from the 24 at 06:00 until the 24 at 15:00 UTC


240500Z 2406/2415 27006KT 9999 FEW016 SCT030
PROB30
TEMPO 2406/2409 BKN010
PROB30
TEMPO 2412/2415 -SHRA BKN014



MET'MAP, your aeronautical weather chart ! - Copyright ORBIFLY December 2007 - Disclaimer

ORBIFLY MET'MAP TEAM :

Programming & Development : Alexandra Zaïnal
Original concept : Baudouin d'Aumeries
Technical & hardware support : Manuel Goepfert
Assistance : Marc-Olivier Méhu




SOURCES & CREDITS :

   NOAA